createdAt,value
2023-01-17T00:02:11.099Z,7.09
2023-01-17T00:04:57.527Z,7.51
2023-01-17T00:07:44.486Z,7.56
2023-01-17T00:10:17.326Z,7.44
2023-01-17T00:12:53.038Z,7.26
2023-01-17T00:15:23.480Z,7.16
2023-01-17T00:17:51.350Z,7.26
2023-01-17T00:20:49.110Z,7.18
2023-01-17T00:23:38.318Z,7.26
2023-01-17T00:26:10.819Z,7.54
2023-01-17T00:28:40.009Z,7.83
2023-01-17T00:31:09.256Z,7.73
2023-01-17T00:33:37.144Z,7.84
2023-01-17T00:36:05.564Z,7.81
2023-01-17T00:38:35.130Z,7.80
2023-01-17T00:41:06.980Z,7.75
2023-01-17T00:43:54.045Z,8.00
2023-01-17T00:46:40.614Z,7.80
2023-01-17T00:49:27.954Z,7.77
2023-01-17T00:52:13.928Z,8.08
2023-01-17T00:55:00.405Z,7.41
2023-01-17T00:57:46.719Z,7.75
2023-01-17T01:00:33.357Z,7.63
2023-01-17T01:03:19.610Z,7.08
2023-01-17T01:06:06.173Z,6.95
2023-01-17T01:08:52.036Z,7.15
2023-01-17T01:11:40.105Z,6.79
2023-01-17T01:14:28.322Z,7.10
2023-01-17T01:17:14.777Z,7.36
2023-01-17T01:20:00.844Z,7.24
2023-01-17T01:22:47.861Z,7.41
2023-01-17T01:25:33.876Z,7.46
2023-01-17T01:28:30.497Z,7.47
2023-01-17T01:31:20.838Z,7.31
2023-01-17T01:33:48.793Z,7.54
2023-01-17T01:36:16.270Z,7.33
2023-01-17T01:38:43.818Z,7.69
2023-01-17T01:41:11.817Z,7.62
2023-01-17T01:43:39.541Z,7.79
2023-01-17T01:46:07.999Z,7.87
2023-01-17T01:48:40.525Z,7.77
2023-01-17T01:51:11.518Z,7.34
2023-01-17T01:53:43.152Z,7.56
2023-01-17T01:56:12.957Z,7.73
2023-01-17T01:58:42.379Z,7.93
2023-01-17T02:01:10.308Z,7.89
2023-01-17T02:03:40.357Z,7.90
2023-01-17T02:06:34.473Z,7.80
2023-01-17T02:09:06.805Z,7.87
2023-01-17T02:11:36.586Z,7.94
2023-01-17T02:14:04.767Z,7.92
2023-01-17T02:17:00.485Z,8.00
2023-01-17T02:19:52.932Z,7.71
2023-01-17T02:22:51.691Z,7.90
2023-01-17T02:25:37.713Z,7.88
2023-01-17T02:28:21.114Z,7.66
2023-01-17T02:30:54.266Z,7.98
2023-01-17T02:33:29.342Z,7.70
2023-01-17T02:36:29.448Z,7.51
2023-01-17T02:39:09.088Z,7.76
2023-01-17T02:41:42.915Z,7.75
2023-01-17T02:44:11.750Z,7.68
2023-01-17T02:46:47.715Z,7.63
2023-01-17T02:49:16.355Z,7.78
2023-01-17T02:51:51.146Z,8.06
2023-01-17T02:54:40.845Z,7.79
2023-01-17T02:57:26.492Z,8.10
2023-01-17T03:00:07.281Z,7.95
2023-01-17T03:02:38.104Z,8.01
2023-01-17T03:05:10.491Z,8.14
2023-01-17T03:07:40.111Z,8.25
2023-01-17T03:10:08.572Z,8.20
2023-01-17T03:12:37.559Z,7.90
2023-01-17T03:15:13.692Z,7.93
2023-01-17T03:17:45.184Z,8.33
2023-01-17T03:20:13.183Z,8.05
2023-01-17T03:22:40.552Z,8.25
2023-01-17T03:25:08.260Z,8.23
2023-01-17T03:27:36.625Z,8.45
2023-01-17T03:30:05.128Z,8.61
2023-01-17T03:32:32.580Z,8.42
2023-01-17T03:35:00.680Z,8.19
2023-01-17T03:37:28.235Z,8.26
2023-01-17T03:39:55.775Z,8.09
2023-01-17T03:42:24.057Z,8.21
2023-01-17T03:44:51.465Z,8.48
2023-01-17T03:47:19.016Z,8.60
2023-01-17T03:49:46.819Z,8.37
2023-01-17T03:52:14.354Z,8.51
2023-01-17T03:54:42.166Z,8.55
2023-01-17T03:57:09.928Z,8.33
2023-01-17T03:59:37.323Z,8.42
2023-01-17T04:02:04.973Z,8.54
2023-01-17T04:04:32.792Z,8.54
2023-01-17T04:07:00.311Z,8.46
2023-01-17T04:09:27.662Z,8.54
2023-01-17T04:11:55.508Z,8.62
2023-01-17T04:14:23.022Z,8.60
2023-01-17T04:16:50.504Z,8.54
2023-01-17T04:19:18.486Z,8.50
2023-01-17T04:21:45.833Z,8.44
2023-01-17T04:24:13.220Z,8.51
2023-01-17T04:26:41.031Z,8.46
2023-01-17T04:29:08.398Z,8.60
2023-01-17T04:31:36.142Z,8.65
2023-01-17T04:34:03.902Z,8.69
2023-01-17T04:36:31.589Z,8.85
2023-01-17T04:38:59.033Z,8.46
2023-01-17T04:41:27.037Z,8.58
2023-01-17T04:43:54.608Z,8.41
2023-01-17T04:46:23.201Z,8.36
2023-01-17T04:48:50.985Z,8.38
2023-01-17T04:51:18.481Z,8.33
2023-01-17T04:53:45.999Z,8.28
2023-01-17T04:56:13.699Z,8.06
2023-01-17T04:58:41.245Z,8.14
2023-01-17T05:01:10.005Z,7.88
2023-01-17T05:03:37.977Z,7.86
2023-01-17T05:06:05.615Z,7.74
2023-01-17T05:08:33.086Z,7.48
2023-01-17T05:11:00.790Z,7.42
2023-01-17T05:13:28.279Z,7.55
2023-01-17T05:15:57.321Z,7.74
2023-01-17T05:18:25.407Z,7.80
2023-01-17T05:20:52.980Z,7.61
2023-01-17T05:23:20.378Z,7.50
2023-01-17T05:25:48.198Z,7.87
2023-01-17T05:28:15.782Z,7.94
2023-01-17T05:30:43.382Z,7.73
2023-01-17T05:33:11.252Z,7.96
2023-01-17T05:35:39.125Z,7.71
2023-01-17T05:38:06.507Z,7.82
2023-01-17T05:40:35.428Z,7.49
2023-01-17T05:43:03.891Z,7.79
2023-01-17T05:45:32.764Z,7.90
2023-01-17T05:48:01.073Z,7.80
2023-01-17T05:50:34.501Z,7.75
2023-01-17T05:53:06.912Z,7.81
2023-01-17T05:55:34.644Z,7.75
2023-01-17T05:58:03.419Z,7.77
2023-01-17T06:00:34.515Z,8.04
2023-01-17T06:03:02.676Z,8.20
2023-01-17T06:05:30.191Z,8.20
2023-01-17T06:07:58.155Z,7.85
2023-01-17T06:10:26.532Z,8.03
2023-01-17T06:13:10.455Z,8.35
2023-01-17T06:15:39.017Z,8.33
2023-01-17T06:18:12.394Z,8.19
2023-01-17T06:20:40.648Z,7.75
2023-01-17T06:23:11.744Z,7.78
2023-01-17T06:25:41.430Z,7.86
2023-01-17T06:28:12.474Z,8.03
2023-01-17T06:30:40.454Z,7.69
2023-01-17T06:33:08.051Z,7.97
2023-01-17T06:35:37.669Z,7.83
2023-01-17T06:38:05.529Z,7.56
2023-01-17T06:40:33.673Z,7.84
2023-01-17T06:43:02.125Z,7.92
2023-01-17T06:45:30.980Z,7.52
2023-01-17T06:47:59.300Z,7.89
2023-01-17T06:50:27.303Z,7.67
2023-01-17T06:52:56.801Z,8.00
2023-01-17T06:55:25.024Z,8.07
2023-01-17T06:57:53.736Z,7.91
2023-01-17T07:00:22.239Z,7.49
2023-01-17T07:02:53.109Z,7.87
2023-01-17T07:05:21.904Z,7.52
2023-01-17T07:07:49.636Z,7.41
2023-01-17T07:10:21.647Z,7.23
2023-01-17T07:12:49.990Z,7.05
2023-01-17T07:15:17.365Z,7.16
2023-01-17T07:17:44.975Z,7.63
2023-01-17T07:20:13.639Z,7.54
2023-01-17T07:22:45.033Z,7.77
2023-01-17T07:25:13.229Z,8.05
2023-01-17T07:27:40.815Z,8.32
2023-01-17T07:30:09.648Z,7.55
2023-01-17T07:32:37.724Z,7.64
2023-01-17T07:35:06.312Z,8.03
2023-01-17T07:37:33.692Z,8.21
2023-01-17T07:40:03.051Z,8.28
2023-01-17T07:42:30.591Z,8.35
2023-01-17T07:44:58.164Z,8.22
2023-01-17T07:47:25.998Z,8.15
2023-01-17T07:49:53.503Z,8.21
2023-01-17T07:52:21.799Z,8.16
2023-01-17T07:54:49.826Z,7.78
2023-01-17T07:57:17.752Z,7.97
2023-01-17T07:59:45.242Z,8.32
2023-01-17T08:02:18.511Z,8.33
2023-01-17T08:04:47.126Z,8.52
2023-01-17T08:07:15.098Z,8.20
2023-01-17T08:09:43.667Z,8.26
2023-01-17T08:12:11.980Z,8.11
2023-01-17T08:14:39.479Z,8.02
2023-01-17T08:17:09.023Z,8.03
2023-01-17T08:19:36.850Z,8.19
2023-01-17T08:22:04.892Z,8.02
2023-01-17T08:24:32.263Z,8.34
2023-01-17T08:27:00.457Z,8.41
2023-01-17T08:29:27.852Z,8.27
2023-01-17T08:31:55.688Z,8.51
2023-01-17T08:34:23.359Z,8.15
2023-01-17T08:36:52.897Z,8.60
2023-01-17T08:39:21.386Z,8.64
2023-01-17T08:41:49.592Z,8.36
2023-01-17T08:44:17.153Z,8.13
2023-01-17T08:46:44.687Z,8.43
2023-01-17T08:49:12.824Z,8.53
2023-01-17T08:51:40.630Z,8.84
2023-01-17T08:54:11.105Z,9.11
2023-01-17T08:56:39.429Z,8.72
2023-01-17T08:59:06.937Z,9.10
2023-01-17T09:01:40.878Z,9.19
2023-01-17T09:04:09.442Z,9.04
2023-01-17T09:06:42.520Z,8.92
2023-01-17T09:09:11.728Z,8.95
2023-01-17T09:11:39.435Z,9.13
2023-01-17T09:14:06.888Z,9.19
2023-01-17T09:16:34.962Z,9.16
2023-01-17T09:19:02.392Z,9.39
2023-01-17T09:21:29.797Z,9.35
2023-01-17T09:23:57.834Z,9.59
2023-01-17T09:26:27.627Z,9.51
2023-01-17T09:28:55.713Z,9.18
2023-01-17T09:31:24.544Z,9.53
2023-01-17T09:33:52.946Z,9.80
2023-01-17T09:36:22.115Z,9.66
2023-01-17T09:38:56.104Z,9.69
2023-01-17T09:41:27.647Z,10.04
2023-01-17T09:44:01.677Z,10.05
2023-01-17T09:46:31.805Z,10.29
2023-01-17T09:49:13.085Z,10.75
2023-01-17T09:51:42.225Z,10.71
2023-01-17T09:54:22.851Z,10.63
2023-01-17T09:57:14.940Z,10.82
2023-01-17T10:00:13.090Z,11.01
2023-01-17T10:02:59.835Z,10.84
2023-01-17T10:05:39.517Z,11.00
2023-01-17T10:08:10.298Z,11.13
2023-01-17T10:10:47.575Z,10.81
2023-01-17T10:13:34.577Z,11.20
2023-01-17T10:16:09.325Z,10.92
2023-01-17T10:18:59.027Z,11.13
2023-01-17T10:22:07.615Z,11.19
2023-01-17T10:24:55.535Z,11.56
2023-01-17T10:27:25.090Z,11.31
2023-01-17T10:29:54.196Z,11.20
2023-01-17T10:32:24.981Z,11.20
2023-01-17T10:34:53.562Z,11.41
2023-01-17T10:37:25.768Z,11.26
2023-01-17T10:39:56.404Z,11.28
2023-01-17T10:42:33.617Z,11.76
2023-01-17T10:45:06.139Z,11.96
2023-01-17T10:47:36.957Z,12.13
2023-01-17T10:50:05.407Z,12.45
2023-01-17T10:53:11.779Z,12.30
2023-01-17T10:55:47.479Z,12.45
2023-01-17T10:58:15.018Z,12.32
2023-01-17T11:00:50.451Z,12.42
2023-01-17T11:03:20.903Z,12.79
2023-01-17T11:06:17.849Z,12.68
2023-01-17T11:08:58.514Z,12.99
2023-01-17T11:11:35.367Z,13.63
2023-01-17T11:14:15.316Z,13.43
2023-01-17T11:16:43.424Z,12.90
2023-01-17T11:19:15.246Z,12.97
2023-01-17T11:21:52.586Z,12.57
2023-01-17T11:24:26.261Z,12.69
2023-01-17T11:26:54.159Z,12.75
2023-01-17T11:29:28.459Z,13.32
2023-01-17T11:31:56.541Z,13.57
2023-01-17T11:34:26.140Z,13.50
2023-01-17T11:37:29.754Z,13.37
2023-01-17T11:40:19.578Z,13.01
2023-01-17T11:42:47.138Z,12.72
2023-01-17T11:45:26.794Z,13.22
2023-01-17T11:48:13.169Z,13.08
2023-01-17T11:50:46.398Z,12.98
2023-01-17T11:53:26.041Z,12.70
2023-01-17T11:55:59.587Z,12.84
2023-01-17T11:58:27.768Z,12.82
2023-01-17T12:01:02.307Z,12.49
2023-01-17T12:03:36.956Z,12.47
2023-01-17T12:06:51.499Z,12.46
2023-01-17T12:09:34.223Z,12.37
2023-01-17T12:12:43.029Z,12.75
2023-01-17T12:15:22.981Z,12.57
2023-01-17T12:18:14.003Z,12.25
2023-01-17T12:20:47.778Z,11.92
2023-01-17T12:23:27.791Z,11.95
2023-01-17T12:26:27.634Z,12.28
2023-01-17T12:29:23.285Z,12.01
2023-01-17T12:32:19.591Z,12.17
2023-01-17T12:34:56.602Z,11.63
2023-01-17T12:37:29.677Z,11.89
2023-01-17T12:40:07.745Z,12.05
2023-01-17T12:42:38.770Z,12.21
2023-01-17T12:45:13.900Z,12.11
2023-01-17T12:47:45.916Z,11.86
2023-01-17T12:50:28.782Z,11.91
2023-01-17T12:53:07.076Z,11.93
2023-01-17T12:55:46.471Z,11.89
2023-01-17T12:58:23.974Z,11.70
2023-01-17T13:00:59.490Z,11.81
2023-01-17T13:03:42.543Z,11.89
2023-01-17T13:06:20.613Z,11.79
2023-01-17T13:08:51.000Z,11.52
2023-01-17T13:11:25.663Z,11.56
2023-01-17T13:13:57.339Z,11.49
2023-01-17T13:16:32.402Z,11.46
2023-01-17T13:19:11.520Z,11.29
2023-01-17T13:21:39.364Z,11.06
2023-01-17T13:24:24.290Z,11.03
2023-01-17T13:27:27.205Z,11.36
2023-01-17T13:30:34.639Z,11.20
2023-01-17T13:33:40.139Z,11.12
2023-01-17T13:36:39.187Z,11.14
2023-01-17T13:39:34.260Z,11.28
2023-01-17T13:42:34.942Z,10.94
2023-01-17T13:45:08.208Z,10.77
2023-01-17T13:47:38.935Z,11.03
2023-01-17T13:50:38.193Z,10.87
2023-01-17T13:53:34.376Z,10.84
2023-01-17T13:56:14.393Z,10.50
2023-01-17T13:58:45.299Z,10.88
2023-01-17T14:01:13.155Z,10.98
2023-01-17T14:03:50.266Z,10.12
2023-01-17T14:06:33.021Z,10.14
2023-01-17T14:09:11.136Z,10.03
2023-01-17T14:11:58.829Z,9.96
2023-01-17T14:14:41.835Z,10.03
2023-01-17T14:17:28.426Z,9.84
2023-01-17T14:20:01.695Z,9.97
2023-01-17T14:22:41.593Z,10.07
2023-01-17T14:25:09.926Z,9.71
2023-01-17T14:27:47.577Z,9.97
2023-01-17T14:30:36.640Z,10.06
2023-01-17T14:33:27.769Z,9.83
2023-01-17T14:36:01.561Z,9.47
2023-01-17T14:38:31.881Z,9.69
2023-01-17T14:41:02.885Z,9.99
2023-01-17T14:43:33.019Z,9.82
2023-01-17T14:46:04.467Z,9.87
2023-01-17T14:48:31.960Z,9.68
2023-01-17T14:51:00.402Z,9.83
2023-01-17T14:53:29.911Z,10.09
2023-01-17T14:56:02.885Z,9.86
2023-01-17T14:58:32.889Z,9.87
2023-01-17T15:01:09.562Z,9.72
2023-01-17T15:03:49.927Z,9.53
2023-01-17T15:06:20.770Z,9.53
2023-01-17T15:08:49.267Z,9.41
2023-01-17T15:11:23.592Z,9.29
2023-01-17T15:13:54.857Z,9.47
2023-01-17T15:16:28.164Z,9.51
2023-01-17T15:18:57.538Z,9.34
2023-01-17T15:21:28.269Z,9.56
2023-01-17T15:24:01.601Z,9.69
2023-01-17T15:26:33.474Z,9.68
2023-01-17T15:29:06.221Z,9.49
2023-01-17T15:32:40.217Z,8.99
2023-01-17T15:35:40.262Z,9.44
2023-01-17T15:38:39.073Z,9.48
2023-01-17T15:44:46.412Z,9.61
2023-01-17T15:47:31.268Z,9.52
2023-01-17T15:49:59.994Z,9.65
2023-01-17T15:52:28.398Z,9.28
2023-01-17T15:55:00.456Z,9.62
2023-01-17T15:57:37.119Z,9.85
2023-01-17T16:00:16.117Z,10.07
2023-01-17T16:02:50.075Z,9.91
2023-01-17T16:05:24.406Z,10.13
2023-01-17T16:08:01.769Z,10.07
2023-01-17T16:10:35.659Z,9.82
2023-01-17T16:13:08.636Z,9.90
2023-01-17T16:15:41.386Z,9.79
2023-01-17T16:18:25.865Z,9.82
2023-01-17T16:21:01.120Z,9.53
2023-01-17T16:23:28.928Z,9.45
2023-01-17T16:25:56.530Z,9.45
2023-01-17T16:28:23.955Z,9.40
2023-01-17T16:30:54.222Z,9.60
2023-01-17T16:33:21.841Z,9.42
2023-01-17T16:35:53.171Z,9.28
2023-01-17T16:38:25.441Z,9.33
2023-01-17T16:40:55.896Z,8.81
2023-01-17T16:43:23.686Z,8.92
2023-01-17T16:45:53.940Z,8.93
2023-01-17T16:48:22.278Z,9.02
2023-01-17T16:50:52.373Z,9.03
2023-01-17T16:53:33.201Z,8.69
2023-01-17T16:56:09.392Z,8.96
2023-01-17T16:58:36.864Z,8.51
2023-01-17T17:01:17.748Z,8.61
2023-01-17T17:03:45.655Z,8.60
2023-01-17T17:06:13.946Z,8.21
2023-01-17T17:08:43.160Z,8.01
2023-01-17T17:11:16.609Z,8.46
2023-01-17T17:13:46.276Z,8.59
2023-01-17T17:16:20.506Z,8.63
2023-01-17T17:18:55.498Z,8.36
2023-01-17T17:21:23.097Z,8.17
2023-01-17T17:23:57.132Z,8.76
2023-01-17T17:26:26.901Z,8.26
2023-01-17T17:28:55.016Z,8.48
2023-01-17T17:31:22.812Z,8.00
2023-01-17T17:33:50.296Z,8.18
2023-01-17T17:36:18.215Z,8.14
2023-01-17T17:38:52.066Z,8.06
2023-01-17T17:41:22.438Z,8.04
2023-01-17T17:43:52.218Z,8.21
2023-01-17T17:46:21.916Z,8.46
2023-01-17T17:48:50.185Z,8.49
2023-01-17T17:51:35.885Z,8.40
2023-01-17T17:54:11.762Z,8.43
2023-01-17T17:56:39.958Z,8.69
2023-01-17T17:59:09.154Z,8.19
2023-01-17T18:01:38.383Z,8.21
2023-01-17T18:04:07.750Z,8.56
2023-01-17T18:06:35.706Z,8.91
2023-01-17T18:09:03.684Z,8.60
2023-01-17T18:11:31.850Z,8.13
2023-01-17T18:14:02.095Z,8.36
2023-01-17T18:16:41.781Z,8.27
2023-01-17T18:19:16.535Z,8.43
2023-01-17T18:21:44.499Z,8.63
2023-01-17T18:24:17.744Z,7.74
2023-01-17T18:26:53.101Z,8.09
2023-01-17T18:29:22.848Z,8.43
2023-01-17T18:31:50.850Z,7.92
2023-01-17T18:34:23.685Z,8.48
2023-01-17T18:36:52.084Z,8.86
2023-01-17T18:39:26.033Z,8.50
2023-01-17T18:41:54.400Z,8.29
2023-01-17T18:44:22.732Z,8.23
2023-01-17T18:46:51.114Z,8.28
2023-01-17T18:49:21.809Z,7.57
2023-01-17T18:51:51.241Z,7.44
2023-01-17T18:54:20.131Z,8.11
2023-01-17T18:56:47.963Z,7.56
2023-01-17T18:59:18.286Z,7.43
2023-01-17T19:01:46.465Z,7.33
2023-01-17T19:04:15.975Z,7.47
2023-01-17T19:06:46.297Z,7.58
2023-01-17T19:09:17.393Z,7.40
2023-01-17T19:11:47.471Z,7.26
2023-01-17T19:14:15.954Z,7.08
2023-01-17T19:16:43.603Z,7.18
2023-01-17T19:19:15.313Z,7.35
2023-01-17T19:21:43.380Z,7.36
2023-01-17T19:24:13.157Z,6.93
2023-01-17T19:26:41.719Z,7.15
2023-01-17T19:29:09.592Z,7.13
2023-01-17T19:31:43.360Z,7.09
2023-01-17T19:34:14.178Z,7.20
2023-01-17T19:36:41.892Z,7.21
2023-01-17T19:39:09.952Z,7.10
2023-01-17T19:41:42.009Z,6.89
2023-01-17T19:44:11.846Z,6.70
2023-01-17T19:46:40.494Z,6.93
2023-01-17T19:49:09.315Z,7.23
2023-01-17T19:51:37.165Z,7.26
2023-01-17T19:54:08.376Z,6.70
2023-01-17T19:56:36.823Z,7.47
2023-01-17T19:59:05.151Z,7.07
2023-01-17T20:01:34.576Z,6.97
2023-01-17T20:04:04.306Z,7.11
2023-01-17T20:06:34.020Z,7.39
2023-01-17T20:09:02.111Z,7.30
2023-01-17T20:11:30.421Z,7.49
2023-01-17T20:13:58.906Z,7.41
2023-01-17T20:16:29.848Z,7.10
2023-01-17T20:19:02.499Z,7.14
2023-01-17T20:21:31.095Z,7.07
2023-01-17T20:23:59.948Z,6.88
2023-01-17T20:26:35.025Z,6.76
2023-01-17T20:29:10.135Z,6.87
2023-01-17T20:31:39.301Z,6.97
2023-01-17T20:34:08.427Z,6.59
2023-01-17T20:36:37.044Z,6.43
2023-01-17T20:39:06.281Z,6.24
2023-01-17T20:41:37.021Z,6.51
2023-01-17T20:44:06.412Z,6.17
2023-01-17T20:46:40.461Z,6.21
2023-01-17T20:49:18.825Z,6.21
2023-01-17T20:51:47.298Z,6.23
2023-01-17T20:54:16.941Z,6.25
2023-01-17T20:56:47.576Z,6.21
2023-01-17T20:59:17.914Z,5.93
2023-01-17T21:01:45.613Z,5.89
2023-01-17T21:04:16.893Z,5.75
2023-01-17T21:06:44.538Z,6.05
2023-01-17T21:09:14.808Z,6.24
2023-01-17T21:11:43.498Z,6.03
2023-01-17T21:14:11.132Z,5.89
2023-01-17T21:16:39.705Z,5.88
2023-01-17T21:19:12.098Z,6.17
2023-01-17T21:21:39.917Z,5.95
2023-01-17T21:24:07.966Z,5.84
2023-01-17T21:26:38.263Z,5.64
2023-01-17T21:29:05.814Z,5.33
2023-01-17T21:31:35.641Z,5.03
2023-01-17T21:34:05.821Z,5.10
2023-01-17T21:36:37.137Z,5.35
2023-01-17T21:39:13.565Z,5.73
2023-01-17T21:41:43.556Z,5.60
2023-01-17T21:44:22.140Z,5.81
2023-01-17T21:46:54.210Z,5.45
2023-01-17T21:49:23.524Z,6.05
2023-01-17T21:51:54.292Z,6.31
2023-01-17T21:54:49.962Z,6.24
2023-01-17T21:57:38.896Z,6.15
2023-01-17T22:00:09.484Z,6.64
2023-01-17T22:02:40.011Z,6.55
2023-01-17T22:05:08.943Z,6.56
2023-01-17T22:07:38.967Z,6.58
2023-01-17T22:10:06.982Z,6.78
2023-01-17T22:12:34.829Z,6.90
2023-01-17T22:15:02.827Z,6.75
2023-01-17T22:17:30.731Z,6.91
2023-01-17T22:19:58.601Z,7.00
2023-01-17T22:22:25.990Z,6.97
2023-01-17T22:24:53.559Z,7.22
2023-01-17T22:27:21.729Z,7.14
2023-01-17T22:29:50.396Z,7.28
2023-01-17T22:32:17.881Z,7.14
2023-01-17T22:34:45.771Z,7.22
2023-01-17T22:37:13.160Z,7.30
2023-01-17T22:39:41.217Z,7.30
2023-01-17T22:42:10.105Z,7.59
2023-01-17T22:44:37.549Z,7.41
2023-01-17T22:47:05.707Z,7.73
2023-01-17T22:49:33.472Z,7.80
2023-01-17T22:52:00.846Z,7.82
2023-01-17T22:54:29.447Z,7.93
2023-01-17T22:56:57.332Z,7.58
2023-01-17T22:59:25.128Z,7.51
2023-01-17T23:01:53.750Z,7.80
2023-01-17T23:04:21.450Z,7.67
2023-01-17T23:06:48.869Z,7.54
2023-01-17T23:09:17.257Z,7.32
2023-01-17T23:11:52.055Z,7.83
2023-01-17T23:14:31.153Z,7.78
2023-01-17T23:17:20.049Z,8.01
2023-01-17T23:19:49.324Z,7.94
2023-01-17T23:22:19.542Z,7.90
2023-01-17T23:24:52.401Z,7.98
2023-01-17T23:27:46.179Z,8.19
2023-01-17T23:30:18.757Z,7.85
2023-01-17T23:32:48.924Z,7.99
2023-01-17T23:35:17.953Z,8.31
2023-01-17T23:38:04.603Z,8.34
2023-01-17T23:40:33.121Z,8.73
2023-01-17T23:43:19.582Z,8.52
2023-01-17T23:45:47.528Z,8.17
2023-01-17T23:48:15.689Z,8.30
2023-01-17T23:50:45.314Z,8.39
2023-01-17T23:53:21.841Z,8.19
2023-01-17T23:55:51.746Z,8.31
2023-01-17T23:58:22.953Z,8.32
